createdAt,value
2022-11-19T00:00:44.257Z,0.90
2022-11-19T00:09:31.863Z,0.90
2022-11-19T00:12:30.542Z,1.10
2022-11-19T00:15:02.953Z,2.57
2022-11-19T00:17:36.063Z,1.50
2022-11-19T00:20:19.675Z,1.43
2022-11-19T00:23:05.277Z,1.37
2022-11-19T00:25:44.892Z,1.60
2022-11-19T00:28:23.363Z,2.13
2022-11-19T00:31:00.554Z,1.57
2022-11-19T00:33:31.144Z,1.30
2022-11-19T00:36:03.389Z,1.73
2022-11-19T00:38:41.292Z,1.60
2022-11-19T00:41:24.269Z,1.60
2022-11-19T00:44:09.232Z,1.53
2022-11-19T00:46:54.199Z,1.40
2022-11-19T00:49:24.739Z,1.70
2022-11-19T00:54:42.539Z,1.80
2022-11-19T00:57:12.783Z,1.73
2022-11-19T00:59:44.984Z,1.93
2022-11-19T01:02:14.618Z,1.67
2022-11-19T01:04:46.669Z,2.10
2022-11-19T01:07:29.569Z,2.13
2022-11-19T01:10:01.287Z,2.00
2022-11-19T01:12:51.790Z,2.20
2022-11-19T01:15:23.380Z,2.00
2022-11-19T01:18:01.538Z,2.07
2022-11-19T01:20:32.620Z,2.47
2022-11-19T01:25:57.877Z,2.17
2022-11-19T01:28:42.070Z,2.10
2022-11-19T01:31:31.960Z,2.20
2022-11-19T01:34:02.882Z,2.33
2022-11-19T01:36:49.153Z,2.40
2022-11-19T01:39:27.575Z,2.60
2022-11-19T01:42:12.042Z,2.37
2022-11-19T01:51:24.630Z,2.00
2022-11-19T01:53:56.634Z,2.30
2022-11-19T01:56:27.426Z,2.87
2022-11-19T01:58:58.176Z,2.53
2022-11-19T02:01:31.758Z,2.63
2022-11-19T02:04:18.577Z,2.80
2022-11-19T02:06:48.476Z,2.80
2022-11-19T02:09:18.847Z,2.80
2022-11-19T02:12:02.738Z,2.93
2022-11-19T02:14:39.973Z,2.93
2022-11-19T02:17:12.226Z,2.70
2022-11-19T02:19:57.091Z,3.03
2022-11-19T02:22:36.577Z,2.93
2022-11-19T02:25:07.919Z,2.40
2022-11-19T02:28:11.392Z,3.07
2022-11-19T02:30:44.446Z,2.87
2022-11-19T02:33:18.508Z,2.77
2022-11-19T02:35:50.978Z,2.33
2022-11-19T02:38:30.358Z,2.73
2022-11-19T02:41:26.990Z,2.50
2022-11-19T02:44:21.412Z,2.60
2022-11-19T02:46:55.566Z,2.30
2022-11-19T02:49:26.616Z,2.70
2022-11-19T02:51:56.077Z,2.50
2022-11-19T02:54:24.902Z,2.60
2022-11-19T02:56:54.959Z,2.70
2022-11-19T02:59:54.369Z,2.30
2022-11-19T03:02:43.626Z,2.23
2022-11-19T03:05:18.048Z,2.33
2022-11-19T03:07:47.253Z,2.23
2022-11-19T03:10:18.564Z,2.43
2022-11-19T03:12:50.821Z,2.37
2022-11-19T03:15:45.248Z,1.97
2022-11-19T03:18:21.248Z,2.23
2022-11-19T03:20:53.378Z,2.10
2022-11-19T03:42:01.583Z,1.77
2022-11-19T03:44:35.774Z,1.80
2022-11-19T03:47:09.476Z,1.87
2022-11-19T03:49:40.162Z,1.63
2022-11-19T03:52:12.724Z,1.50
2022-11-19T03:54:42.009Z,1.60
2022-11-19T03:57:13.545Z,1.90
2022-11-19T03:59:44.032Z,1.37
2022-11-19T04:02:13.676Z,1.57
2022-11-19T04:04:42.455Z,1.40
2022-11-19T04:07:15.813Z,1.30
2022-11-19T04:09:45.650Z,1.60
2022-11-19T04:12:17.297Z,1.30
2022-11-19T04:14:48.361Z,1.60
2022-11-19T04:17:17.408Z,1.50
2022-11-19T04:19:46.455Z,1.73
2022-11-19T04:22:15.479Z,1.67
2022-11-19T04:24:44.289Z,1.37
2022-11-19T04:27:12.979Z,1.30
2022-11-19T04:29:42.525Z,1.77
2022-11-19T04:32:13.155Z,1.30
2022-11-19T04:34:42.580Z,1.33
2022-11-19T04:37:12.250Z,1.20
2022-11-19T04:39:41.244Z,1.37
2022-11-19T04:42:12.633Z,1.30
2022-11-19T04:44:42.895Z,1.20
2022-11-19T04:47:14.057Z,1.53
2022-11-19T04:49:42.942Z,1.37
2022-11-19T04:52:12.629Z,1.37
2022-11-19T04:54:43.002Z,1.20
2022-11-19T04:57:12.356Z,1.27
2022-11-19T04:59:41.163Z,1.20
2022-11-19T05:02:10.057Z,1.27
2022-11-19T05:04:42.836Z,1.20
2022-11-19T05:07:11.773Z,1.20
2022-11-19T05:09:40.390Z,1.43
2022-11-19T05:12:09.673Z,1.30
2022-11-19T05:14:39.271Z,1.00
2022-11-19T05:17:08.231Z,1.20
2022-11-19T05:19:37.166Z,1.20
2022-11-19T05:22:08.036Z,1.30
2022-11-19T05:24:37.452Z,1.20
2022-11-19T05:27:07.185Z,1.30
2022-11-19T05:29:36.146Z,1.30
2022-11-19T05:32:05.098Z,1.70
2022-11-19T05:34:33.608Z,1.30
2022-11-19T05:37:02.321Z,1.37
2022-11-19T05:39:33.217Z,1.67
2022-11-19T05:42:02.013Z,1.83
2022-11-19T05:44:30.760Z,1.60
2022-11-19T05:46:59.971Z,1.20
2022-11-19T05:49:28.727Z,1.60
2022-11-19T05:51:57.575Z,1.77
2022-11-19T05:54:26.320Z,1.40
2022-11-19T05:56:57.072Z,1.40
2022-11-19T05:59:25.650Z,1.50
2022-11-19T06:01:54.638Z,1.30
2022-11-19T06:04:24.102Z,1.97
2022-11-19T06:06:53.151Z,1.73
2022-11-19T06:09:22.008Z,1.83
2022-11-19T06:11:51.343Z,2.27
2022-11-19T06:14:23.360Z,1.80
2022-11-19T06:16:52.451Z,1.60
2022-11-19T06:19:21.656Z,1.70
2022-11-19T06:21:50.766Z,2.37
2022-11-19T06:24:19.623Z,2.00
2022-11-19T06:26:48.292Z,1.73
2022-11-19T06:29:17.409Z,1.80
2022-11-19T06:31:48.680Z,1.70
2022-11-19T06:34:19.806Z,1.80
2022-11-19T06:36:50.702Z,2.00
2022-11-19T06:39:20.747Z,1.67
2022-11-19T06:41:49.856Z,1.63
2022-11-19T06:44:18.458Z,2.03
2022-11-19T06:46:49.123Z,1.67
2022-11-19T06:49:20.369Z,1.40
2022-11-19T06:51:52.040Z,1.50
2022-11-19T06:54:24.974Z,1.50
2022-11-19T06:56:54.275Z,1.57
2022-11-19T06:59:23.285Z,1.33
2022-11-19T07:01:54.596Z,1.50
2022-11-19T07:04:26.386Z,1.40
2022-11-19T07:06:55.229Z,1.53
2022-11-19T07:09:23.746Z,1.50
2022-11-19T07:11:52.214Z,1.10
2022-11-19T07:14:20.850Z,1.20
2022-11-19T07:16:49.605Z,1.60
2022-11-19T07:19:19.919Z,1.30
2022-11-19T07:21:48.966Z,1.37
2022-11-19T07:24:19.443Z,1.50
2022-11-19T07:26:48.043Z,1.07
2022-11-19T07:29:19.677Z,1.13
2022-11-19T07:31:51.255Z,1.50
2022-11-19T07:34:23.590Z,1.40
2022-11-19T07:36:52.642Z,1.23
2022-11-19T07:39:31.453Z,1.63
2022-11-19T07:42:17.524Z,1.37
2022-11-19T07:44:49.777Z,1.50
2022-11-19T07:47:25.713Z,1.70
2022-11-19T07:49:57.162Z,1.50
2022-11-19T07:52:28.721Z,1.77
2022-11-19T07:54:59.053Z,1.40
2022-11-19T07:57:30.628Z,1.73
2022-11-19T08:08:53.787Z,1.47
2022-11-19T08:11:22.596Z,1.60
2022-11-19T08:13:51.158Z,1.17
2022-11-19T08:16:39.784Z,1.70
2022-11-19T08:19:10.098Z,1.40
2022-11-19T08:58:35.729Z,1.20
2022-11-19T09:13:31.387Z,1.27
2022-11-19T09:16:11.539Z,1.30
2022-11-19T09:21:38.760Z,1.20
2022-11-19T09:24:10.876Z,1.43
2022-11-19T09:35:09.170Z,1.00
2022-11-19T09:37:41.233Z,1.30
2022-11-19T09:57:53.694Z,1.30
2022-11-19T10:11:57.105Z,1.20
2022-11-19T10:17:08.503Z,1.30
2022-11-19T10:19:50.093Z,1.30
2022-11-19T10:22:24.609Z,1.30
2022-11-19T10:25:01.951Z,1.10
2022-11-19T10:27:39.697Z,1.20
2022-11-19T10:32:57.686Z,1.30
2022-11-19T10:35:30.656Z,1.50
2022-11-19T10:38:04.680Z,1.37
2022-11-19T10:40:41.197Z,1.23
2022-11-19T10:43:23.382Z,1.70
2022-11-19T10:45:57.536Z,2.30
2022-11-19T10:48:29.269Z,1.33
2022-11-19T10:51:02.635Z,1.90
2022-11-19T10:53:33.795Z,1.23
2022-11-19T10:56:06.222Z,1.87
2022-11-19T10:58:38.993Z,1.43
2022-11-19T11:01:16.621Z,1.47
2022-11-19T11:03:50.759Z,1.60
2022-11-19T11:06:19.572Z,1.30
2022-11-19T11:09:16.372Z,1.10
2022-11-19T11:12:05.217Z,1.13
2022-11-19T11:18:35.864Z,1.50
2022-11-19T11:21:12.032Z,1.60
2022-11-19T11:23:48.581Z,1.40
2022-11-19T11:26:22.488Z,1.40
2022-11-19T11:29:03.815Z,1.90
2022-11-19T11:31:36.577Z,2.00
2022-11-19T11:34:05.876Z,1.50
2022-11-19T11:36:39.412Z,1.63
2022-11-19T11:39:09.183Z,1.90
2022-11-19T11:42:04.928Z,2.00
2022-11-19T11:44:31.793Z,1.50
2022-11-19T11:47:08.296Z,1.50
2022-11-19T11:49:42.795Z,1.30
2022-11-19T11:52:51.635Z,0.90
2022-11-19T11:55:52.609Z,0.70
2022-11-19T11:58:30.778Z,0.70
2022-11-19T12:01:18.587Z,0.87
2022-11-19T12:03:57.357Z,0.60
2022-11-19T12:06:29.035Z,0.83
2022-11-19T12:09:02.646Z,1.00
2022-11-19T12:11:54.359Z,0.93
2022-11-19T12:14:28.419Z,0.87
2022-11-19T12:17:28.196Z,1.00
2022-11-19T12:20:10.990Z,1.57
2022-11-19T12:22:45.789Z,1.40
2022-11-19T12:25:25.733Z,1.37
2022-11-19T12:28:07.542Z,1.17
2022-11-19T12:30:41.696Z,1.37
2022-11-19T12:33:25.914Z,1.40
2022-11-19T12:36:03.658Z,1.60
2022-11-19T12:38:38.578Z,1.40
2022-11-19T12:41:28.725Z,1.37
2022-11-19T12:44:01.516Z,1.40
2022-11-19T12:46:33.475Z,1.40
2022-11-19T12:49:12.662Z,1.23
2022-11-19T12:51:53.284Z,1.30
2022-11-19T12:54:34.890Z,1.37
2022-11-19T12:57:17.878Z,1.50
2022-11-19T13:00:05.297Z,1.70
2022-11-19T13:02:42.127Z,1.30
2022-11-19T13:05:14.745Z,1.70
2022-11-19T13:07:45.952Z,1.63
2022-11-19T13:10:19.461Z,1.90
2022-11-19T13:12:51.882Z,1.60
2022-11-19T13:15:27.767Z,1.60
2022-11-19T13:18:03.698Z,1.20
2022-11-19T13:20:35.680Z,1.40
2022-11-19T13:23:06.433Z,1.53
2022-11-19T13:25:40.167Z,1.53
2022-11-19T13:28:16.206Z,1.37
2022-11-19T13:30:51.004Z,1.37
2022-11-19T13:33:24.350Z,1.47
2022-11-19T13:35:59.529Z,1.10
2022-11-19T13:38:34.135Z,1.30
2022-11-19T13:41:09.924Z,1.40
2022-11-19T13:43:56.157Z,1.27
2022-11-19T13:46:31.446Z,1.20
2022-11-19T13:49:04.184Z,1.40
2022-11-19T13:51:38.404Z,0.87
2022-11-19T13:54:08.870Z,1.40
2022-11-19T13:56:43.753Z,1.43
2022-11-19T13:59:31.305Z,1.10
2022-11-19T14:02:19.283Z,1.40
2022-11-19T14:05:10.930Z,1.20
2022-11-19T14:07:52.711Z,1.10
2022-11-19T14:10:28.211Z,1.00
2022-11-19T14:13:15.876Z,1.00
2022-11-19T14:16:16.301Z,0.90
2022-11-19T14:19:06.473Z,0.93
2022-11-19T14:22:09.772Z,1.20
2022-11-19T14:25:15.386Z,0.97
2022-11-19T14:27:44.231Z,1.00
2022-11-19T14:30:16.920Z,1.00
2022-11-19T14:32:49.008Z,1.60
2022-11-19T14:35:39.447Z,1.20
2022-11-19T14:38:29.374Z,1.03
2022-11-19T14:41:22.386Z,1.30
2022-11-19T14:44:11.283Z,1.20
2022-11-19T14:46:46.130Z,1.17
2022-11-19T14:49:27.816Z,1.40
2022-11-19T14:52:01.068Z,1.53
2022-11-19T14:54:40.260Z,1.60
2022-11-19T14:57:18.543Z,1.53
2022-11-19T14:59:48.261Z,1.40
2022-11-19T15:02:20.087Z,1.20
2022-11-19T15:04:59.249Z,1.37
2022-11-19T15:07:41.881Z,1.20
2022-11-19T15:10:33.264Z,1.10
2022-11-19T15:13:23.800Z,1.10
2022-11-19T15:15:56.591Z,1.10
2022-11-19T15:19:03.245Z,1.13
2022-11-19T15:22:01.295Z,1.57
2022-11-19T15:24:46.292Z,1.23
2022-11-19T15:27:23.287Z,1.40
2022-11-19T15:30:08.792Z,1.30
2022-11-19T15:32:54.376Z,1.30
2022-11-19T15:35:53.257Z,1.87
2022-11-19T15:38:31.380Z,1.60
2022-11-19T15:41:04.742Z,2.00
2022-11-19T15:43:38.182Z,1.60
2022-11-19T15:46:12.531Z,1.50
2022-11-19T15:48:52.737Z,1.50
2022-11-19T15:51:22.691Z,1.57
2022-11-19T15:54:01.443Z,1.40
2022-11-19T15:56:34.358Z,1.30
2022-11-19T15:59:03.939Z,1.60
2022-11-19T16:01:34.499Z,1.20
2022-11-19T16:04:07.967Z,1.57
2022-11-19T16:06:39.640Z,1.50
2022-11-19T16:09:08.919Z,1.73
2022-11-19T16:11:56.981Z,1.70
2022-11-19T16:14:46.574Z,2.50
2022-11-19T16:17:43.059Z,2.30
2022-11-19T16:20:21.782Z,2.77
2022-11-19T16:22:56.130Z,2.07
2022-11-19T16:25:31.968Z,2.60
2022-11-19T16:28:06.063Z,1.97
2022-11-19T16:30:46.479Z,1.90
2022-11-19T16:33:18.659Z,1.90
2022-11-19T16:35:52.429Z,2.00
2022-11-19T16:38:27.185Z,1.53
2022-11-19T16:41:14.119Z,1.73
2022-11-19T16:43:47.079Z,2.13
2022-11-19T16:46:18.608Z,2.67
2022-11-19T16:48:57.980Z,2.67
2022-11-19T16:51:38.228Z,2.17
2022-11-19T16:54:10.446Z,1.90
2022-11-19T16:56:45.302Z,2.03
2022-11-19T16:59:25.002Z,2.27
2022-11-19T17:01:56.393Z,2.80
2022-11-19T17:04:28.248Z,3.83
2022-11-19T17:06:56.788Z,5.10
2022-11-19T17:09:35.885Z,3.77
2022-11-19T17:12:19.621Z,4.77
2022-11-19T17:14:54.541Z,3.97
2022-11-19T17:17:40.247Z,4.17
2022-11-19T17:20:59.988Z,4.67
2022-11-19T17:23:29.974Z,4.00
2022-11-19T17:26:00.139Z,5.40
2022-11-19T17:28:35.271Z,7.33
2022-11-19T17:31:07.980Z,3.77
2022-11-19T17:33:36.977Z,3.40
2022-11-19T17:36:05.953Z,4.40
2022-11-19T17:38:34.663Z,2.80
2022-11-19T17:41:05.496Z,5.77
2022-11-19T17:43:53.228Z,2.87
2022-11-19T17:46:23.572Z,1.90
2022-11-19T17:48:52.835Z,1.47
2022-11-19T17:51:22.881Z,1.27
2022-11-19T17:53:52.044Z,1.30
2022-11-19T17:56:22.844Z,1.57
2022-11-19T17:58:51.402Z,1.47
2022-11-19T18:01:20.287Z,1.60
2022-11-19T18:03:50.288Z,1.30
2022-11-19T18:06:19.706Z,1.67
2022-11-19T18:08:48.194Z,1.63
2022-11-19T18:11:17.951Z,1.70
2022-11-19T18:13:46.537Z,1.80
2022-11-19T18:16:19.733Z,1.60
2022-11-19T18:18:52.785Z,1.90
2022-11-19T18:36:51.720Z,1.63
2022-11-19T18:39:29.546Z,1.67
2022-11-19T18:48:34.573Z,1.60
2022-11-19T18:54:10.083Z,1.93
2022-11-19T19:01:28.033Z,2.00
2022-11-19T23:58:24.267Z,2.43
